• Join FlightAware (Why Join?)
  • Login
  • US Flag 
08:24PM EDT


 

Airport Tracker/Info


-or-


 

Live Flight TrackerFlight Track Log ✈ N2164L ✈ 16-Aug-2013 ✈ KGJT - KAPA

Flight Track Log - Related Links

Times and Time Zones

All times are in EDT time to prevent confusion due to time zone crossing. See the N2164L flight status page for this flight to view local times or setup timezone preferences in your user account.

Time Position Orientation Groundspeed Altitude Reporting Facility
EDT Latitude Longitude Course Direction KTS MPH feet Rate Location/Type
04:10PM 39.1428 -108.2925 41° Northeast 165 190 11,400  Level Denver Center
04:11PM 39.1825 -108.2472 41° Northeast 191 220 11,500 120 Climbing Denver Center
04:12PM 39.2217 -108.1864 50° Northeast 208 239 11,700 540 Climbing Denver Center
04:13PM 39.2511 -108.1328 55° Northeast 185 213 12,700 840 Climbing Denver Center
04:14PM 39.2811 -108.0747 56° Northeast 180 207 13,500 360 Climbing Denver Center
04:15PM 39.3117 -108.0156 56° Northeast 196 226 13,500  Level Denver Center
04:16PM 39.3439 -107.9561 55° Northeast 191 220 13,500 -60 Level Denver Center
04:17PM 39.3742 -107.8972 56° Northeast 197 227 13,400  Descending Denver Center
04:18PM 39.4050 -107.8400 55° Northeast 189 217 13,500  Climbing Denver Center
04:19PM 39.4347 -107.7819 56° Northeast 196 226 13,500  Level Denver Center
04:20PM 39.4686 -107.7169 56° Northeast 196 226 13,500  Level Denver Center
04:21PM 39.4969 -107.6661 54° Northeast 188 216 13,500  Level Denver Center
04:22PM 39.5292 -107.6025 57° Northeast 189 217 13,500  Level Denver Center
04:23PM 39.5586 -107.5469 55° Northeast 194 223 13,500  Level Denver Center
04:24PM 39.5908 -107.4839 56° Northeast 190 219 13,500  Level Denver Center
04:26PM 39.6231 -107.4214 56° Northeast 188 216 13,500 -60 Level Denver Center
04:27PM 39.6569 -107.3542 57° Northeast 195 224 13,400 -480 Descending Denver Center
04:28PM 39.6439 -107.2933 106° East 205 236 12,600 -360 Descending Denver Center
04:29PM 39.5861 -107.2881 176° South 189 217 12,600  Level Denver Center
04:30PM 39.5394 -107.2956 187° South 166 191 12,700 -480 Climbing Denver Center
04:31PM 39.5333 -107.3583 263° West 161 185 11,700 -960 Descending Denver Center
04:32PM 39.5325 -107.4128 269° West 159 183 10,700 -1,020 Descending Denver Center
04:33PM 39.5314 -107.4744 269° West 154 177 9,600 -1,020 Descending Denver Center
04:34PM 39.5306 -107.5314 269° West 156 180 8,700 -960 Descending Denver Center
04:35PM 39.5289 -107.5861 268° West 155 178 7,700 -960 Descending Denver Center
04:36PM 39.5281 -107.6406 269° West 153 176 6,800 -780 Descending Denver Center
04:37PM 39.5269 -107.6933 268° West 151 174 6,100 4,200 Descending Denver Center
04:38PM 39.5269 -107.7439 270° West 137 158 15,500 540 Climbing Denver Center
04:39PM 39.5425 -107.7853 296° West 144 166 7,300 -3,360 Descending Denver Center
04:40PM 39.5686 -107.7567 40° Northeast 145 167 8,600 1,200 Climbing Denver Center
04:41PM 39.5539 -107.7153 115° Southeast 146 168 9,800 1,260 Climbing Denver Center
04:42PM 39.5358 -107.6606 113° Southeast 163 188 11,300 1,260 Climbing Denver Center
04:43PM 39.5553 -107.6014 67° East 160 184 12,500 1,140 Climbing Denver Center
04:44PM 39.5653 -107.5439 77° East 173 199 13,700 420 Climbing Denver Center
04:45PM 39.5786 -107.4639 78° East 204 235 13,400 -180 Descending Denver Center
04:46PM 39.5964 -107.3925 72° East 216 249 13,400  Level Denver Center
04:47PM 39.6111 -107.3250 74° East 206 237 13,400  Level Denver Center
04:49PM 39.6294 -107.2428 74° East 211 243 13,400  Level Denver Center
04:50PM 39.6447 -107.1747 74° East 203 234 13,400  Level Denver Center
04:51PM 39.6600 -107.1075 74° East 195 224 13,400  Level Denver Center
04:52PM 39.6756 -107.0389 74° East 196 226 13,400  Level Denver Center
04:53PM 39.6919 -106.9656 74° East 204 235 13,400  Level Denver Center
04:54PM 39.7069 -106.9003 73° East 192 221 13,400  Level Denver Center
04:55PM 39.7214 -106.8339 74° East 191 220 13,500  Climbing Denver Center
04:56PM 39.7394 -106.7542 74° East 190 219 13,500  Level Denver Center
04:57PM 39.7544 -106.6872 74° East 188 216 13,500  Level Denver Center
04:58PM 39.7719 -106.6067 74° East 193 222 13,600 -300 Climbing Denver Center
04:59PM 39.7517 -106.5433 113° Southeast 203 234 12,900 -480 Descending Denver Center
05:00PM 39.7036 -106.5636 198° South 189 217 12,600 -360 Descending Denver Center
05:01PM 39.6883 -106.6069 245° Southwest 180 207 12,200 -1,080 Descending Denver Center
05:02PM 39.6744 -106.6897 258° West 170 196 10,400 -1,440 Descending Denver Center
05:03PM 39.6669 -106.7486 261° West 168 193 9,300 -1,020 Descending Denver Center
05:04PM 39.6589 -106.8028 259° West 159 183 8,400 -900 Descending Denver Center
05:05PM 39.6494 -106.8525 256° West 149 171 7,500 -840 Descending Denver Center
05:06PM 39.6439 -106.8994 261° West 141 162 6,700 -300 Descending Denver Center
05:07PM 39.6428 -106.9428 268° West 120 138 6,900 960 Climbing Denver Center
05:08PM 39.6806 -106.9636 337° Northwest 145 167 8,800 1,500 Climbing Denver Center
05:09PM 39.6961 -106.9203 65° Northeast 155 178 10,000 1,380 Climbing Denver Center
05:10PM 39.6956 -106.8614 91° East 157 181 11,700 1,560 Climbing Denver Center
05:12PM 39.6958 -106.8042 90° East 157 181 13,600 1,500 Climbing Denver Center
05:13PM 39.6958 -106.7306 90° East 166 191 15,200 1,260 Climbing Denver Center
05:14PM 39.6939 -106.6692 92° East 169 194 16,300 960 Climbing Denver Center
05:15PM 39.6900 -106.6044 94° East 177 204 17,200 540 Climbing Denver Center
05:16PM 39.6839 -106.5158 95° East 205 236 17,500 180 Climbing Denver Center
05:17PM 39.6814 -106.4397 92° East 209 241 17,600  Climbing Denver Center
05:18PM 39.6767 -106.3656 95° East 206 237 17,600  Level Denver Center
05:19PM 39.6714 -106.2753 94° East 209 241 17,600 -60 Level Denver Center
05:20PM 39.6658 -106.1986 95° East 212 244 17,500 -120 Descending Denver Center
05:21PM 39.6597 -106.1164 95° East 222 255 17,400 -60 Descending Denver Center
05:22PM 39.6531 -106.0244 95° East 217 250 17,400  Level Denver Center
05:23PM 39.6483 -105.9469 95° East 216 249 17,400  Level Denver Center
05:24PM 39.6444 -105.8714 94° East 214 246 17,400  Level Denver Center
05:25PM 39.6392 -105.7931 95° East 211 243 17,400  Level Denver Center
05:26PM 39.6333 -105.7128 95° East 208 239 17,400  Level Denver Center
05:27PM 39.6286 -105.6375 95° East 210 242 17,400  Level Denver Center
05:28PM 39.6286 -105.5544 90° East 215 247 17,400  Level Denver Center
05:29PM 39.6364 -105.4794 82° East 212 244 17,400 -120 Level Denver Center
05:31PM 39.6425 -105.4006 84° East 217 250 17,200 -780 Descending Denver Center
05:32PM 39.6494 -105.3083 84° East 241 277 15,800 -1,080 Descending Denver Center
05:33PM 39.6408 -105.2228 97° East 238 274 15,000 -840 Descending Denver Center
05:34PM 39.6056 -105.1544 124° Southeast 221 254 14,100 -1,440 Descending Denver Center
05:35PM 39.5681 -105.1036 134° Southeast 203 234 12,100 -1,920 Descending Denver Center
05:36PM 39.5139 -105.0903 169° South 185 213 10,200 -1,620 Descending Denver Center
05:37PM 39.4833 -105.0561 139° Southeast 168 193 8,800 -1,020 Descending Denver Center
05:38PM 39.5150 -105.0161 44° Northeast 165 190 8,100 -540 Descending Denver Center
05:39PM 39.5611 -105.0056 10° North 171 197 7,800 -420 Descending Denver Center
05:40PM 39.6125 -104.9808 20° North 181 208 7,300 -360 Descending Denver Center
05:41PM 39.6583 -104.9547 24° Northeast 180 207 7,100 -120 Descending Denver Center
05:42PM 39.6778 -104.9092 61° Northeast 167 192 7,100  Level Denver Center
05:43PM 39.6567 -104.8628 121° Southeast 157 181 7,200 -420 Climbing Denver Center
05:44PM 39.6167 -104.8522 169° South 152 175 6,300 -720 Descending Denver Center
05:45PM 39.5747 -104.8503 178° South 135 155 5,800 -540 Descending Denver Center